Aérodrome :
LOGIN :

S'inscrire | Disclaimer

   EN    FR    IT 

 










Légende :    VFR   VFR Marginal   IFR   IFR Intensif   IFR Très Intensif
Visi : 
Plafond : 
>= 8 km
>= 3000ft
5 à 8 km
1000 à 3000 ft
1500m à 5 km
500 à 1000 ft
800 à 1500m
200 à 500 ft
< 800m
< 200 ft
Symboles :   Orages  Brouillard  Fortes neiges  Fortes précipitations  Vent > 20 kt
SIGMETs :   Divers  Orages  Givrage  Turbulence  Onde Orograph.  Cendres Volcan.






- Altitude de l'aérodrome : 876 ft
- Code IATA : MBX


LJMB - Maribor

DERNIER METAR :
  • 200630Z 36005KT 330V030 9999 FEW020 BKN060 01/M02 Q1042

METARs EXPIRÉS :
  • 200600Z 34008KT 9999 FEW020 BKN063 01/M02 Q1041
  • 200530Z 36007KT CAVOK 01/M02 Q1041
  • 200500Z 36005KT CAVOK 00/M02 Q1041
  • 200430Z AUTO 01005KT 9999 NSC M00/M02 Q1040
  • 200400Z AUTO 01004KT 9999 NSC M00/M02 Q1040

TAF TAF LJMB
Valide du 20 à 06h jusqu'au 21 à 06h UTC


200500Z 2006/2106 36005KT 9999 BKN050
PROB40
TEMPO 2006/2012 7000 -SN OVC030
TEMPO 2016/2024 BKN020
BECMG 2023/2101 NSC
TEMPO 2101/2106 0350 FZFG VV002



MET'MAP, la Météo Aéronautique d'un coup d'oeil ! - Copyright ORBIFLY Décembre 2007 - Disclaimer

ORBIFLY MET'MAP TEAM :

Programmation & Développement : Alexandra Zaïnal
Sur une idée originale de : Baudouin d'Aumeries
Assistance à la programmation : Marc-Olivier Méhu
Soutien technique & logistique : Manuel Goepfert

Contact : metmap@orbifly.com




SOURCES & CREDITS :

   NOAA